sensor_id;sensor_type;location;lat;lon;timestamp;P1;durP1;ratioP1;P2;durP2;ratioP2
64923;SDS011;51436;44.692;39.214;2022-08-21T00:00:07;33.90;;;6.00;;
64923;SDS011;51436;44.692;39.214;2022-08-21T00:02:43;12.55;;;5.50;;
64923;SDS011;51436;44.692;39.214;2022-08-21T00:05:15;9.10;;;5.82;;
64923;SDS011;51436;44.692;39.214;2022-08-21T00:07:42;9.00;;;5.38;;
64923;SDS011;51436;44.692;39.214;2022-08-21T00:10:09;7.85;;;4.88;;
64923;SDS011;51436;44.692;39.214;2022-08-21T00:12:35;10.32;;;5.22;;
64923;SDS011;51436;44.692;39.214;2022-08-21T00:15:03;8.85;;;5.30;;
64923;SDS011;51436;44.692;39.214;2022-08-21T00:17:32;10.48;;;4.80;;
64923;SDS011;51436;44.692;39.214;2022-08-21T00:19:58;17.75;;;5.07;;
64923;SDS011;51436;44.692;39.214;2022-08-21T00:22:37;11.93;;;4.53;;
64923;SDS011;51436;44.692;39.214;2022-08-21T00:25:04;12.15;;;4.80;;
64923;SDS011;51436;44.692;39.214;2022-08-21T00:27:32;6.20;;;4.50;;
64923;SDS011;51436;44.692;39.214;2022-08-21T00:29:59;13.88;;;4.95;;
64923;SDS011;51436;44.692;39.214;2022-08-21T00:32:26;10.55;;;4.93;;
64923;SDS011;51436;44.692;39.214;2022-08-21T00:34:53;11.93;;;4.55;;
64923;SDS011;51436;44.692;39.214;2022-08-21T00:37:20;10.02;;;4.30;;
64923;SDS011;51436;44.692;39.214;2022-08-21T00:39:47;15.98;;;5.10;;
64923;SDS011;51436;44.692;39.214;2022-08-21T00:42:14;9.95;;;4.72;;
64923;SDS011;51436;44.692;39.214;2022-08-21T00:44:44;14.40;;;4.75;;
64923;SDS011;51436;44.692;39.214;2022-08-21T00:47:12;10.27;;;4.20;;
64923;SDS011;51436;44.692;39.214;2022-08-21T00:49:39;15.10;;;4.43;;
64923;SDS011;51436;44.692;39.214;2022-08-21T00:52:07;10.93;;;4.07;;
64923;SDS011;51436;44.692;39.214;2022-08-21T00:54:36;7.72;;;4.30;;
64923;SDS011;51436;44.692;39.214;2022-08-21T00:57:27;11.07;;;4.40;;
64923;SDS011;51436;44.692;39.214;2022-08-21T00:59:58;10.55;;;4.60;;
64923;SDS011;51436;44.692;39.214;2022-08-21T01:02:26;10.05;;;4.28;;
64923;SDS011;51436;44.692;39.214;2022-08-21T01:04:53;9.88;;;4.53;;
64923;SDS011;51436;44.692;39.214;2022-08-21T01:07:20;13.05;;;4.50;;
64923;SDS011;51436;44.692;39.214;2022-08-21T01:09:46;12.75;;;5.55;;
64923;SDS011;51436;44.692;39.214;2022-08-21T01:12:13;10.75;;;3.95;;
64923;SDS011;51436;44.692;39.214;2022-08-21T01:14:40;9.68;;;4.65;;
64923;SDS011;51436;44.692;39.214;2022-08-21T01:17:13;12.63;;;4.85;;
64923;SDS011;51436;44.692;39.214;2022-08-21T01:19:41;10.30;;;4.70;;
64923;SDS011;51436;44.692;39.214;2022-08-21T01:22:08;12.23;;;4.60;;
64923;SDS011;51436;44.692;39.214;2022-08-21T01:24:35;8.18;;;4.68;;
64923;SDS011;51436;44.692;39.214;2022-08-21T01:27:02;18.45;;;4.57;;
64923;SDS011;51436;44.692;39.214;2022-08-21T01:29:39;8.93;;;4.00;;
64923;SDS011;51436;44.692;39.214;2022-08-21T01:32:15;12.68;;;4.47;;
64923;SDS011;51436;44.692;39.214;2022-08-21T01:34:43;13.13;;;4.32;;
64923;SDS011;51436;44.692;39.214;2022-08-21T01:37:18;12.30;;;3.88;;
64923;SDS011;51436;44.692;39.214;2022-08-21T01:39:47;8.38;;;4.18;;
64923;SDS011;51436;44.692;39.214;2022-08-21T01:42:14;15.27;;;4.50;;
64923;SDS011;51436;44.692;39.214;2022-08-21T01:44:41;16.55;;;4.10;;
64923;SDS011;51436;44.692;39.214;2022-08-21T01:47:08;12.85;;;4.82;;
64923;SDS011;51436;44.692;39.214;2022-08-21T01:49:36;12.90;;;4.63;;
64923;SDS011;51436;44.692;39.214;2022-08-21T01:52:03;13.43;;;4.80;;
64923;SDS011;51436;44.692;39.214;2022-08-21T01:54:30;25.85;;;5.30;;
64923;SDS011;51436;44.692;39.214;2022-08-21T01:56:57;16.42;;;6.05;;
64923;SDS011;51436;44.692;39.214;2022-08-21T01:59:24;17.52;;;5.75;;
64923;SDS011;51436;44.692;39.214;2022-08-21T02:01:51;15.27;;;6.53;;
64923;SDS011;51436;44.692;39.214;2022-08-21T02:04:20;11.95;;;5.47;;
64923;SDS011;51436;44.692;39.214;2022-08-21T02:06:46;8.40;;;4.63;;
64923;SDS011;51436;44.692;39.214;2022-08-21T02:09:14;11.10;;;4.85;;
64923;SDS011;51436;44.692;39.214;2022-08-21T02:11:41;17.60;;;5.20;;
64923;SDS011;51436;44.692;39.214;2022-08-21T02:14:08;23.35;;;5.82;;
64923;SDS011;51436;44.692;39.214;2022-08-21T02:16:37;14.27;;;5.20;;
64923;SDS011;51436;44.692;39.214;2022-08-21T02:19:04;11.23;;;4.90;;
64923;SDS011;51436;44.692;39.214;2022-08-21T02:21:31;15.82;;;5.00;;
64923;SDS011;51436;44.692;39.214;2022-08-21T02:23:57;13.07;;;5.20;;
64923;SDS011;51436;44.692;39.214;2022-08-21T02:26:24;20.13;;;5.00;;
64923;SDS011;51436;44.692;39.214;2022-08-21T02:28:51;10.48;;;5.20;;
64923;SDS011;51436;44.692;39.214;2022-08-21T02:31:18;18.58;;;6.13;;
64923;SDS011;51436;44.692;39.214;2022-08-21T02:33:44;11.73;;;5.57;;
64923;SDS011;51436;44.692;39.214;2022-08-21T02:36:11;11.02;;;6.10;;
64923;SDS011;51436;44.692;39.214;2022-08-21T02:38:38;12.98;;;6.40;;
64923;SDS011;51436;44.692;39.214;2022-08-21T02:41:07;10.55;;;6.28;;
64923;SDS011;51436;44.692;39.214;2022-08-21T02:43:35;19.38;;;7.20;;
64923;SDS011;51436;44.692;39.214;2022-08-21T02:46:02;16.63;;;6.85;;
64923;SDS011;51436;44.692;39.214;2022-08-21T02:48:30;12.82;;;6.50;;
64923;SDS011;51436;44.692;39.214;2022-08-21T02:51:02;15.73;;;6.43;;
64923;SDS011;51436;44.692;39.214;2022-08-21T02:53:37;18.92;;;7.20;;
64923;SDS011;51436;44.692;39.214;2022-08-21T02:56:04;16.13;;;6.28;;
64923;SDS011;51436;44.692;39.214;2022-08-21T02:58:35;13.82;;;7.70;;
64923;SDS011;51436;44.692;39.214;2022-08-21T03:01:05;11.75;;;7.47;;
64923;SDS011;51436;44.692;39.214;2022-08-21T03:03:36;16.15;;;7.32;;
64923;SDS011;51436;44.692;39.214;2022-08-21T03:06:05;14.13;;;6.57;;
64923;SDS011;51436;44.692;39.214;2022-08-21T03:08:36;15.30;;;7.20;;
64923;SDS011;51436;44.692;39.214;2022-08-21T03:11:03;17.13;;;7.63;;
64923;SDS011;51436;44.692;39.214;2022-08-21T03:13:30;15.32;;;7.60;;
64923;SDS011;51436;44.692;39.214;2022-08-21T03:15:57;15.65;;;6.38;;
64923;SDS011;51436;44.692;39.214;2022-08-21T03:18:24;15.35;;;6.60;;
64923;SDS011;51436;44.692;39.214;2022-08-21T03:20:51;17.25;;;5.88;;
64923;SDS011;51436;44.692;39.214;2022-08-21T03:23:17;18.90;;;6.15;;
64923;SDS011;51436;44.692;39.214;2022-08-21T03:25:56;17.85;;;6.32;;
64923;SDS011;51436;44.692;39.214;2022-08-21T03:28:23;17.00;;;6.07;;
64923;SDS011;51436;44.692;39.214;2022-08-21T03:30:50;18.48;;;6.13;;
64923;SDS011;51436;44.692;39.214;2022-08-21T03:33:17;14.15;;;5.20;;
64923;SDS011;51436;44.692;39.214;2022-08-21T03:35:45;18.27;;;5.50;;
64923;SDS011;51436;44.692;39.214;2022-08-21T03:38:16;10.27;;;5.32;;
64923;SDS011;51436;44.692;39.214;2022-08-21T03:40:43;9.43;;;5.05;;
64923;SDS011;51436;44.692;39.214;2022-08-21T03:43:09;14.68;;;5.88;;
64923;SDS011;51436;44.692;39.214;2022-08-21T03:45:36;8.20;;;4.90;;
64923;SDS011;51436;44.692;39.214;2022-08-21T03:48:03;16.25;;;5.68;;
64923;SDS011;51436;44.692;39.214;2022-08-21T03:50:33;17.13;;;5.90;;
64923;SDS011;51436;44.692;39.214;2022-08-21T03:53:02;11.38;;;5.28;;
64923;SDS011;51436;44.692;39.214;2022-08-21T03:55:28;17.40;;;6.10;;
64923;SDS011;51436;44.692;39.214;2022-08-21T03:57:55;18.50;;;5.72;;
64923;SDS011;51436;44.692;39.214;2022-08-21T04:00:21;14.02;;;5.50;;
64923;SDS011;51436;44.692;39.214;2022-08-21T04:02:48;15.10;;;5.50;;
64923;SDS011;51436;44.692;39.214;2022-08-21T04:05:14;12.55;;;6.13;;
64923;SDS011;51436;44.692;39.214;2022-08-21T04:07:56;18.13;;;6.22;;
64923;SDS011;51436;44.692;39.214;2022-08-21T04:10:24;15.68;;;8.02;;
64923;SDS011;51436;44.692;39.214;2022-08-21T04:12:53;19.25;;;8.48;;
64923;SDS011;51436;44.692;39.214;2022-08-21T04:15:21;22.60;;;10.98;;
64923;SDS011;51436;44.692;39.214;2022-08-21T04:17:48;26.63;;;11.18;;
64923;SDS011;51436;44.692;39.214;2022-08-21T04:20:15;19.10;;;8.35;;
64923;SDS011;51436;44.692;39.214;2022-08-21T04:22:54;24.77;;;8.70;;
64923;SDS011;51436;44.692;39.214;2022-08-21T04:25:22;17.52;;;7.53;;
64923;SDS011;51436;44.692;39.214;2022-08-21T04:27:51;16.95;;;5.50;;
64923;SDS011;51436;44.692;39.214;2022-08-21T04:30:17;17.27;;;6.38;;
64923;SDS011;51436;44.692;39.214;2022-08-21T04:32:45;12.95;;;5.05;;
64923;SDS011;51436;44.692;39.214;2022-08-21T04:35:18;10.10;;;5.30;;
64923;SDS011;51436;44.692;39.214;2022-08-21T04:37:46;14.70;;;5.10;;
64923;SDS011;51436;44.692;39.214;2022-08-21T04:40:14;13.95;;;5.38;;
64923;SDS011;51436;44.692;39.214;2022-08-21T04:42:43;18.63;;;5.97;;
64923;SDS011;51436;44.692;39.214;2022-08-21T04:45:31;14.60;;;5.63;;
64923;SDS011;51436;44.692;39.214;2022-08-21T04:48:01;18.95;;;6.07;;
64923;SDS011;51436;44.692;39.214;2022-08-21T04:50:37;20.17;;;5.25;;
64923;SDS011;51436;44.692;39.214;2022-08-21T04:53:12;12.02;;;5.95;;
64923;SDS011;51436;44.692;39.214;2022-08-21T04:58:45;18.08;;;6.47;;
64923;SDS011;51436;44.692;39.214;2022-08-21T05:01:15;17.60;;;6.55;;
64923;SDS011;51436;44.692;39.214;2022-08-21T05:03:45;21.02;;;7.07;;
64923;SDS011;51436;44.692;39.214;2022-08-21T05:06:14;14.18;;;6.50;;
64923;SDS011;51436;44.692;39.214;2022-08-21T05:08:42;24.27;;;6.43;;
64923;SDS011;51436;44.692;39.214;2022-08-21T05:11:11;33.97;;;7.65;;
64923;SDS011;51436;44.692;39.214;2022-08-21T05:13:38;28.75;;;6.63;;
64923;SDS011;51436;44.692;39.214;2022-08-21T05:16:06;25.45;;;6.93;;
64923;SDS011;51436;44.692;39.214;2022-08-21T05:18:33;21.25;;;6.70;;
64923;SDS011;51436;44.692;39.214;2022-08-21T05:20:59;23.08;;;7.15;;
64923;SDS011;51436;44.692;39.214;2022-08-21T05:23:25;24.63;;;6.35;;
64923;SDS011;51436;44.692;39.214;2022-08-21T05:25:52;23.42;;;6.05;;
64923;SDS011;51436;44.692;39.214;2022-08-21T05:28:19;17.92;;;6.25;;
64923;SDS011;51436;44.692;39.214;2022-08-21T05:30:45;23.38;;;6.75;;
64923;SDS011;51436;44.692;39.214;2022-08-21T05:33:12;28.27;;;6.93;;
64923;SDS011;51436;44.692;39.214;2022-08-21T05:35:39;29.52;;;7.90;;
64923;SDS011;51436;44.692;39.214;2022-08-21T05:38:05;19.00;;;8.18;;
64923;SDS011;51436;44.692;39.214;2022-08-21T05:40:32;40.72;;;7.97;;
64923;SDS011;51436;44.692;39.214;2022-08-21T05:42:58;20.10;;;8.20;;
64923;SDS011;51436;44.692;39.214;2022-08-21T05:45:27;23.25;;;7.57;;
64923;SDS011;51436;44.692;39.214;2022-08-21T05:48:04;24.85;;;6.78;;
64923;SDS011;51436;44.692;39.214;2022-08-21T05:53:18;23.63;;;7.28;;
64923;SDS011;51436;44.692;39.214;2022-08-21T05:55:45;23.20;;;6.22;;
64923;SDS011;51436;44.692;39.214;2022-08-21T05:58:16;19.75;;;6.75;;
64923;SDS011;51436;44.692;39.214;2022-08-21T06:00:45;26.02;;;6.88;;
64923;SDS011;51436;44.692;39.214;2022-08-21T06:03:13;27.50;;;7.78;;
64923;SDS011;51436;44.692;39.214;2022-08-21T06:05:44;22.08;;;6.68;;
64923;SDS011;51436;44.692;39.214;2022-08-21T06:08:11;15.50;;;6.40;;
64923;SDS011;51436;44.692;39.214;2022-08-21T06:10:38;20.42;;;5.63;;
64923;SDS011;51436;44.692;39.214;2022-08-21T06:13:04;24.38;;;6.15;;
64923;SDS011;51436;44.692;39.214;2022-08-21T06:15:31;47.42;;;7.28;;
64923;SDS011;51436;44.692;39.214;2022-08-21T06:17:57;31.20;;;6.13;;
64923;SDS011;51436;44.692;39.214;2022-08-21T06:20:23;33.22;;;6.22;;
64923;SDS011;51436;44.692;39.214;2022-08-21T06:22:50;19.52;;;7.10;;
64923;SDS011;51436;44.692;39.214;2022-08-21T06:25:16;28.38;;;8.38;;
64923;SDS011;51436;44.692;39.214;2022-08-21T06:28:05;35.13;;;7.80;;
64923;SDS011;51436;44.692;39.214;2022-08-21T06:30:33;19.77;;;6.57;;
64923;SDS011;51436;44.692;39.214;2022-08-21T06:33:00;35.63;;;7.82;;
64923;SDS011;51436;44.692;39.214;2022-08-21T06:35:27;30.63;;;8.07;;
64923;SDS011;51436;44.692;39.214;2022-08-21T06:37:54;40.30;;;8.85;;
64923;SDS011;51436;44.692;39.214;2022-08-21T06:40:22;27.88;;;7.78;;
64923;SDS011;51436;44.692;39.214;2022-08-21T06:42:48;34.95;;;6.88;;
64923;SDS011;51436;44.692;39.214;2022-08-21T06:45:15;34.15;;;7.00;;
64923;SDS011;51436;44.692;39.214;2022-08-21T06:47:41;27.70;;;7.20;;
64923;SDS011;51436;44.692;39.214;2022-08-21T06:50:08;31.95;;;7.00;;
64923;SDS011;51436;44.692;39.214;2022-08-21T06:52:38;43.55;;;6.90;;
64923;SDS011;51436;44.692;39.214;2022-08-21T06:55:06;26.35;;;5.85;;
64923;SDS011;51436;44.692;39.214;2022-08-21T06:57:34;28.75;;;8.10;;
64923;SDS011;51436;44.692;39.214;2022-08-21T07:00:00;40.67;;;6.72;;
64923;SDS011;51436;44.692;39.214;2022-08-21T07:02:30;18.08;;;5.63;;
64923;SDS011;51436;44.692;39.214;2022-08-21T07:04:58;24.80;;;5.88;;
64923;SDS011;51436;44.692;39.214;2022-08-21T07:07:25;37.05;;;5.65;;
64923;SDS011;51436;44.692;39.214;2022-08-21T07:10:10;28.45;;;8.25;;
64923;SDS011;51436;44.692;39.214;2022-08-21T07:12:36;41.63;;;6.68;;
64923;SDS011;51436;44.692;39.214;2022-08-21T07:15:03;29.67;;;6.60;;
64923;SDS011;51436;44.692;39.214;2022-08-21T07:17:30;29.52;;;6.25;;
64923;SDS011;51436;44.692;39.214;2022-08-21T07:19:56;22.10;;;6.50;;
64923;SDS011;51436;44.692;39.214;2022-08-21T07:22:23;26.92;;;6.47;;
64923;SDS011;51436;44.692;39.214;2022-08-21T07:24:50;32.42;;;6.03;;
64923;SDS011;51436;44.692;39.214;2022-08-21T07:27:16;31.27;;;5.90;;
64923;SDS011;51436;44.692;39.214;2022-08-21T07:29:42;24.48;;;5.95;;
64923;SDS011;51436;44.692;39.214;2022-08-21T07:32:09;30.88;;;6.47;;
64923;SDS011;51436;44.692;39.214;2022-08-21T07:34:35;26.88;;;5.90;;
64923;SDS011;51436;44.692;39.214;2022-08-21T07:37:01;36.90;;;6.82;;
64923;SDS011;51436;44.692;39.214;2022-08-21T07:39:28;34.58;;;6.07;;
64923;SDS011;51436;44.692;39.214;2022-08-21T07:41:54;39.60;;;7.68;;
64923;SDS011;51436;44.692;39.214;2022-08-21T07:44:20;28.67;;;6.53;;
64923;SDS011;51436;44.692;39.214;2022-08-21T07:46:47;20.08;;;5.45;;
64923;SDS011;51436;44.692;39.214;2022-08-21T07:49:13;31.05;;;6.97;;
64923;SDS011;51436;44.692;39.214;2022-08-21T07:51:39;37.78;;;8.32;;
64923;SDS011;51436;44.692;39.214;2022-08-21T07:54:06;39.47;;;7.13;;
64923;SDS011;51436;44.692;39.214;2022-08-21T07:56:34;37.88;;;8.45;;
64923;SDS011;51436;44.692;39.214;2022-08-21T07:59:00;25.75;;;6.97;;
64923;SDS011;51436;44.692;39.214;2022-08-21T08:01:28;25.88;;;6.20;;
64923;SDS011;51436;44.692;39.214;2022-08-21T08:03:55;34.17;;;5.97;;
64923;SDS011;51436;44.692;39.214;2022-08-21T08:06:21;26.30;;;6.72;;
64923;SDS011;51436;44.692;39.214;2022-08-21T08:08:48;38.67;;;7.03;;
64923;SDS011;51436;44.692;39.214;2022-08-21T08:11:15;34.22;;;7.47;;
64923;SDS011;51436;44.692;39.214;2022-08-21T08:14:00;26.88;;;6.60;;
64923;SDS011;51436;44.692;39.214;2022-08-21T08:16:29;36.05;;;9.07;;
64923;SDS011;51436;44.692;39.214;2022-08-21T08:18:55;26.23;;;6.20;;
64923;SDS011;51436;44.692;39.214;2022-08-21T08:21:22;35.95;;;6.65;;
64923;SDS011;51436;44.692;39.214;2022-08-21T08:23:48;24.45;;;6.90;;
64923;SDS011;51436;44.692;39.214;2022-08-21T08:26:15;22.65;;;6.50;;
64923;SDS011;51436;44.692;39.214;2022-08-21T08:28:41;25.27;;;6.63;;
64923;SDS011;51436;44.692;39.214;2022-08-21T08:31:07;32.15;;;5.75;;
64923;SDS011;51436;44.692;39.214;2022-08-21T08:33:34;31.00;;;6.00;;
64923;SDS011;51436;44.692;39.214;2022-08-21T08:36:00;21.73;;;5.65;;
64923;SDS011;51436;44.692;39.214;2022-08-21T08:38:26;31.40;;;5.68;;
64923;SDS011;51436;44.692;39.214;2022-08-21T08:43:29;32.35;;;6.43;;
64923;SDS011;51436;44.692;39.214;2022-08-21T08:45:58;29.83;;;5.63;;
64923;SDS011;51436;44.692;39.214;2022-08-21T08:51:04;31.38;;;5.93;;
64923;SDS011;51436;44.692;39.214;2022-08-21T08:53:44;44.78;;;6.15;;
64923;SDS011;51436;44.692;39.214;2022-08-21T08:56:18;32.20;;;5.78;;
64923;SDS011;51436;44.692;39.214;2022-08-21T08:58:47;30.65;;;6.15;;
64923;SDS011;51436;44.692;39.214;2022-08-21T09:01:19;42.05;;;6.10;;
64923;SDS011;51436;44.692;39.214;2022-08-21T09:03:46;39.28;;;5.97;;
64923;SDS011;51436;44.692;39.214;2022-08-21T09:06:28;38.30;;;6.32;;
64923;SDS011;51436;44.692;39.214;2022-08-21T09:12:33;24.15;;;4.93;;
64923;SDS011;51436;44.692;39.214;2022-08-21T09:15:36;34.47;;;5.63;;
64923;SDS011;51436;44.692;39.214;2022-08-21T09:22:15;49.08;;;6.53;;
64923;SDS011;51436;44.692;39.214;2022-08-21T09:24:29;44.30;;;6.07;;
64923;SDS011;51436;44.692;39.214;2022-08-21T09:29:31;32.20;;;5.28;;
64923;SDS011;51436;44.692;39.214;2022-08-21T09:32:00;41.78;;;6.10;;
64923;SDS011;51436;44.692;39.214;2022-08-21T09:34:30;37.13;;;5.45;;
64923;SDS011;51436;44.692;39.214;2022-08-21T09:36:56;48.92;;;6.65;;
64923;SDS011;51436;44.692;39.214;2022-08-21T09:39:25;36.78;;;5.55;;
64923;SDS011;51436;44.692;39.214;2022-08-21T09:41:57;44.80;;;6.60;;
64923;SDS011;51436;44.692;39.214;2022-08-21T09:44:29;53.30;;;5.68;;
64923;SDS011;51436;44.692;39.214;2022-08-21T09:46:57;54.95;;;6.70;;
64923;SDS011;51436;44.692;39.214;2022-08-21T09:49:31;42.50;;;5.80;;
64923;SDS011;51436;44.692;39.214;2022-08-21T09:52:00;54.45;;;6.60;;
64923;SDS011;51436;44.692;39.214;2022-08-21T09:54:31;36.38;;;5.13;;
64923;SDS011;51436;44.692;39.214;2022-08-21T09:59:55;38.13;;;5.43;;
64923;SDS011;51436;44.692;39.214;2022-08-21T10:04:51;68.85;;;6.25;;
64923;SDS011;51436;44.692;39.214;2022-08-21T10:07:36;43.17;;;6.43;;
64923;SDS011;51436;44.692;39.214;2022-08-21T10:10:08;46.85;;;5.80;;
64923;SDS011;51436;44.692;39.214;2022-08-21T10:12:42;51.22;;;6.82;;
64923;SDS011;51436;44.692;39.214;2022-08-21T10:21:10;31.45;;;5.25;;
64923;SDS011;51436;44.692;39.214;2022-08-21T10:26:48;41.50;;;4.13;;
64923;SDS011;51436;44.692;39.214;2022-08-21T10:29:35;41.63;;;4.93;;
64923;SDS011;51436;44.692;39.214;2022-08-21T10:34:41;32.47;;;4.20;;
64923;SDS011;51436;44.692;39.214;2022-08-21T10:40:33;44.03;;;4.40;;
64923;SDS011;51436;44.692;39.214;2022-08-21T10:46:06;25.90;;;3.80;;
64923;SDS011;51436;44.692;39.214;2022-08-21T10:48:44;38.30;;;4.68;;
64923;SDS011;51436;44.692;39.214;2022-08-21T10:56:47;48.00;;;5.43;;
64923;SDS011;51436;44.692;39.214;2022-08-21T11:02:32;46.38;;;5.35;;
64923;SDS011;51436;44.692;39.214;2022-08-21T11:08:26;41.90;;;5.35;;
64923;SDS011;51436;44.692;39.214;2022-08-21T11:10:40;50.58;;;5.55;;
64923;SDS011;51436;44.692;39.214;2022-08-21T11:13:13;48.10;;;5.20;;
64923;SDS011;51436;44.692;39.214;2022-08-21T11:15:50;39.58;;;5.30;;
64923;SDS011;51436;44.692;39.214;2022-08-21T11:18:39;36.08;;;5.15;;
64923;SDS011;51436;44.692;39.214;2022-08-21T11:23:50;45.97;;;6.10;;
64923;SDS011;51436;44.692;39.214;2022-08-21T11:26:38;48.15;;;5.80;;
64923;SDS011;51436;44.692;39.214;2022-08-21T11:29:09;44.92;;;6.03;;
64923;SDS011;51436;44.692;39.214;2022-08-21T11:32:21;49.28;;;6.15;;
64923;SDS011;51436;44.692;39.214;2022-08-21T11:37:50;48.22;;;6.85;;
64923;SDS011;51436;44.692;39.214;2022-08-21T11:40:34;48.08;;;6.25;;
64923;SDS011;51436;44.692;39.214;2022-08-21T11:43:59;49.33;;;5.55;;
64923;SDS011;51436;44.692;39.214;2022-08-21T11:49:13;46.28;;;5.65;;
64923;SDS011;51436;44.692;39.214;2022-08-21T11:54:42;47.50;;;5.60;;
64923;SDS011;51436;44.692;39.214;2022-08-21T11:57:32;58.65;;;6.35;;
64923;SDS011;51436;44.692;39.214;2022-08-21T12:00:06;37.45;;;5.32;;
64923;SDS011;51436;44.692;39.214;2022-08-21T12:02:45;56.33;;;6.28;;
64923;SDS011;51436;44.692;39.214;2022-08-21T12:08:00;48.08;;;5.45;;
64923;SDS011;51436;44.692;39.214;2022-08-21T12:10:33;55.00;;;5.88;;
64923;SDS011;51436;44.692;39.214;2022-08-21T12:13:23;47.60;;;5.45;;
64923;SDS011;51436;44.692;39.214;2022-08-21T12:16:15;47.22;;;5.63;;
64923;SDS011;51436;44.692;39.214;2022-08-21T12:19:09;40.92;;;5.47;;
64923;SDS011;51436;44.692;39.214;2022-08-21T12:24:20;52.13;;;6.05;;
64923;SDS011;51436;44.692;39.214;2022-08-21T12:29:46;53.45;;;5.78;;
64923;SDS011;51436;44.692;39.214;2022-08-21T12:34:45;44.03;;;5.03;;
64923;SDS011;51436;44.692;39.214;2022-08-21T12:40:04;40.97;;;4.47;;
64923;SDS011;51436;44.692;39.214;2022-08-21T12:42:55;38.53;;;5.13;;
64923;SDS011;51436;44.692;39.214;2022-08-21T12:45:29;33.72;;;4.65;;
64923;SDS011;51436;44.692;39.214;2022-08-21T12:47:59;43.58;;;6.03;;
64923;SDS011;51436;44.692;39.214;2022-08-21T12:50:50;37.35;;;5.82;;
64923;SDS011;51436;44.692;39.214;2022-08-21T12:53:29;30.90;;;5.93;;
64923;SDS011;51436;44.692;39.214;2022-08-21T12:58:30;37.88;;;5.85;;
64923;SDS011;51436;44.692;39.214;2022-08-21T13:01:02;45.85;;;5.18;;
64923;SDS011;51436;44.692;39.214;2022-08-21T13:03:50;37.97;;;5.80;;
64923;SDS011;51436;44.692;39.214;2022-08-21T13:06:20;65.25;;;6.85;;
64923;SDS011;51436;44.692;39.214;2022-08-21T13:08:49;33.80;;;5.45;;
64923;SDS011;51436;44.692;39.214;2022-08-21T13:11:22;40.70;;;5.18;;
64923;SDS011;51436;44.692;39.214;2022-08-21T13:13:50;36.85;;;5.72;;
64923;SDS011;51436;44.692;39.214;2022-08-21T13:16:18;40.83;;;5.85;;
64923;SDS011;51436;44.692;39.214;2022-08-21T13:18:55;48.97;;;5.65;;
64923;SDS011;51436;44.692;39.214;2022-08-21T13:21:57;39.92;;;5.20;;
64923;SDS011;51436;44.692;39.214;2022-08-21T13:24:25;39.60;;;5.03;;
64923;SDS011;51436;44.692;39.214;2022-08-21T13:26:59;40.10;;;5.97;;
64923;SDS011;51436;44.692;39.214;2022-08-21T13:29:30;55.38;;;6.90;;
64923;SDS011;51436;44.692;39.214;2022-08-21T13:32:03;47.72;;;7.43;;
64923;SDS011;51436;44.692;39.214;2022-08-21T13:34:36;32.08;;;4.55;;
64923;SDS011;51436;44.692;39.214;2022-08-21T13:37:04;38.75;;;4.32;;
64923;SDS011;51436;44.692;39.214;2022-08-21T13:39:33;43.50;;;5.03;;
64923;SDS011;51436;44.692;39.214;2022-08-21T13:42:01;46.55;;;5.30;;
64923;SDS011;51436;44.692;39.214;2022-08-21T13:44:36;40.35;;;5.15;;
64923;SDS011;51436;44.692;39.214;2022-08-21T13:47:09;35.47;;;4.72;;
64923;SDS011;51436;44.692;39.214;2022-08-21T13:49:39;53.38;;;6.38;;
64923;SDS011;51436;44.692;39.214;2022-08-21T13:52:15;42.38;;;7.13;;
64923;SDS011;51436;44.692;39.214;2022-08-21T13:54:52;46.70;;;5.78;;
64923;SDS011;51436;44.692;39.214;2022-08-21T13:57:24;40.53;;;4.50;;
64923;SDS011;51436;44.692;39.214;2022-08-21T14:00:12;34.05;;;4.45;;
64923;SDS011;51436;44.692;39.214;2022-08-21T14:02:43;45.65;;;6.28;;
64923;SDS011;51436;44.692;39.214;2022-08-21T14:05:19;41.38;;;4.70;;
64923;SDS011;51436;44.692;39.214;2022-08-21T14:07:56;33.72;;;3.97;;
64923;SDS011;51436;44.692;39.214;2022-08-21T14:10:41;46.90;;;5.07;;
64923;SDS011;51436;44.692;39.214;2022-08-21T14:13:22;30.65;;;4.68;;
64923;SDS011;51436;44.692;39.214;2022-08-21T14:18:49;32.03;;;3.88;;
64923;SDS011;51436;44.692;39.214;2022-08-21T14:21:35;37.10;;;4.53;;
64923;SDS011;51436;44.692;39.214;2022-08-21T14:24:25;32.88;;;4.28;;
64923;SDS011;51436;44.692;39.214;2022-08-21T14:26:55;37.97;;;4.55;;
64923;SDS011;51436;44.692;39.214;2022-08-21T14:29:32;19.35;;;3.15;;
64923;SDS011;51436;44.692;39.214;2022-08-21T14:32:13;25.60;;;4.43;;
64923;SDS011;51436;44.692;39.214;2022-08-21T14:34:42;39.30;;;4.10;;
64923;SDS011;51436;44.692;39.214;2022-08-21T14:37:08;41.33;;;5.72;;
64923;SDS011;51436;44.692;39.214;2022-08-21T14:39:37;26.40;;;3.58;;
64923;SDS011;51436;44.692;39.214;2022-08-21T14:42:04;33.55;;;4.68;;
64923;SDS011;51436;44.692;39.214;2022-08-21T14:44:30;38.42;;;4.38;;
64923;SDS011;51436;44.692;39.214;2022-08-21T14:46:58;38.80;;;4.47;;
64923;SDS011;51436;44.692;39.214;2022-08-21T14:49:25;29.35;;;4.60;;
64923;SDS011;51436;44.692;39.214;2022-08-21T14:51:53;32.03;;;4.97;;
64923;SDS011;51436;44.692;39.214;2022-08-21T14:54:24;34.90;;;5.43;;
64923;SDS011;51436;44.692;39.214;2022-08-21T14:56:52;29.55;;;4.43;;
64923;SDS011;51436;44.692;39.214;2022-08-21T14:59:19;26.52;;;5.10;;
64923;SDS011;51436;44.692;39.214;2022-08-21T15:01:46;35.78;;;4.43;;
64923;SDS011;51436;44.692;39.214;2022-08-21T15:04:13;36.88;;;4.35;;
64923;SDS011;51436;44.692;39.214;2022-08-21T15:06:39;35.13;;;5.10;;
64923;SDS011;51436;44.692;39.214;2022-08-21T15:09:06;24.95;;;4.97;;
64923;SDS011;51436;44.692;39.214;2022-08-21T15:11:34;36.70;;;5.22;;
64923;SDS011;51436;44.692;39.214;2022-08-21T15:14:03;27.90;;;4.95;;
64923;SDS011;51436;44.692;39.214;2022-08-21T15:16:33;33.85;;;4.93;;
64923;SDS011;51436;44.692;39.214;2022-08-21T15:19:00;27.08;;;5.07;;
64923;SDS011;51436;44.692;39.214;2022-08-21T15:21:27;38.03;;;5.70;;
64923;SDS011;51436;44.692;39.214;2022-08-21T15:23:53;34.05;;;5.32;;
64923;SDS011;51436;44.692;39.214;2022-08-21T15:26:20;33.10;;;5.38;;
64923;SDS011;51436;44.692;39.214;2022-08-21T15:28:48;38.25;;;5.97;;
64923;SDS011;51436;44.692;39.214;2022-08-21T15:31:15;40.20;;;6.65;;
64923;SDS011;51436;44.692;39.214;2022-08-21T15:33:41;27.20;;;6.30;;
64923;SDS011;51436;44.692;39.214;2022-08-21T15:36:07;33.97;;;5.20;;
64923;SDS011;51436;44.692;39.214;2022-08-21T15:38:33;40.55;;;6.45;;
64923;SDS011;51436;44.692;39.214;2022-08-21T15:41:01;36.28;;;5.13;;
64923;SDS011;51436;44.692;39.214;2022-08-21T15:43:30;46.13;;;6.70;;
64923;SDS011;51436;44.692;39.214;2022-08-21T15:46:08;46.38;;;6.70;;
64923;SDS011;51436;44.692;39.214;2022-08-21T15:48:37;61.00;;;7.80;;
64923;SDS011;51436;44.692;39.214;2022-08-21T15:51:04;61.38;;;6.90;;
64923;SDS011;51436;44.692;39.214;2022-08-21T15:53:30;59.15;;;7.03;;
64923;SDS011;51436;44.692;39.214;2022-08-21T15:56:04;55.25;;;8.27;;
64923;SDS011;51436;44.692;39.214;2022-08-21T15:58:40;86.85;;;8.98;;
64923;SDS011;51436;44.692;39.214;2022-08-21T16:01:06;90.13;;;9.15;;
64923;SDS011;51436;44.692;39.214;2022-08-21T16:03:33;70.53;;;8.63;;
64923;SDS011;51436;44.692;39.214;2022-08-21T16:05:59;55.50;;;7.72;;